Tiempo atmosférico en la estación meteorológica de Ibias, San Antolin, Asturias (762 m.)



Fecha
DESCASC
Temp. máxima en grados centígrados (hora)
DESCASC
Temp. mínima en grados centígrados (hora)
DESCASC
Temp. media en grados centígrados
DESCASC
Racha de viento máxima en m/sg (hora)
DESCASC
Velocidad máxima media en intervalos de 10 minutos(hora)
DESCASC
Precipitaciones diarias en mm
DESCASC
Precipitaciones de 00:00 a 06:00 en mm
DESCASC
Precipitaciones de 06:00 a 12:00 en mm
DESCASC
Precipitaciones de 12:00 a 18:00 en mm
DESCASC
Precipitaciones de 18:00 a 24:00 en mm
DESCASC
18-08-2019 19.3 (00:00) 12.2 (23:59) 15.7 11.67 (03:00) 7.5 (03:00) 5.2 0 5 0.2 0
17-08-2019 28.7 (16:20) 14.3 (07:30) 21.5 12.5 (18:20) 7.5 (16:10) 0 0 0 0 0
16-08-2019 29.1 (16:10) 12.5 (07:00) 20.8 11.39 (17:20) 7.22 (17:20) 0 0 0 0 0
15-08-2019 26.1 (15:40) 13 (00:00) 19.6 9.44 (15:20) 3.61 (13:10) 0 0 0 0 0
14-08-2019 23.1 (13:00) 12.5 (00:00) 17.8 8.89 (21:50) 5.28 (19:20) 0 0 0 0 0
13-08-2019 24.5 (17:10) 8.7 (00:00) 16.6 8.06 (18:40) 4.72 (00:30) 0 0 0 0 0
12-08-2019 19.6 (15:20) 9.2 (00:00) 14.4 7.22 (20:40) 3.89 (23:59) 0 0 0 0 0
11-08-2019 18.6 (14:10) 10.3 (00:00) 14.5 12.5 (15:20) 8.89 (15:20) 1.4 0 0 1.4 0
10-08-2019 22.1 (17:00) 13 (00:00) 17.6 10.28 (06:50) 6.67 (06:20) 0 0 0 0 0
09-08-2019 22.2 (00:00) 14.2 (00:00) 18.2 20.56 (12:50) 13.61 (15:20) 4 4 0 0 0
08-08-2019 25.9 (13:20) 18 (00:00) 21.9 19.17 (19:20) 10.83 (22:30) 0.8 0 0 0.8 0
07-08-2019 21.9 (13:30) 14.2 (00:00) 18 9.72 (22:50) 6.11 (22:50) 1.4 0 0 1.2 0.2
06-08-2019 23.7 (14:10) 15.1 (00:00) 19.4 8.61 (17:50) 5.28 (16:40) 0.2 0 0 0 0.2
05-08-2019 28.4 (16:40) 14.7 (00:00) 21.5 9.72 (17:10) 4.72 (17:10) 0 0 0 0 0
04-08-2019 27.5 (17:40) 15.8 (00:00) 21.7 7.5 (17:50) 4.72 (17:50) 0 0 0 0 0
03-08-2019 29 (15:50) 14.7 (00:00) 21.8 9.17 (17:10) 5 (17:50) 0 0 0 0 0
02-08-2019 28.6 (18:20) 12.2 (00:00) 20.4 6.11 (19:50) 3.06 (13:30) 0 0 0 0 0
01-08-2019 25.3 (16:50) 11.5 (00:00) 18.4 7.78 (19:20) 4.17 (19:20) 0 0 0 0 0
31-07-2019 21.6 (15:10) 8.1 (00:00) 14.9 6.11 (12:50) 2.78 (22:20) 0 0 0 0 0
30-07-2019 19.9 (16:50) 9.9 (00:00) 14.9 8.61 (02:00) 5.56 (02:00) 0 0 0 0 0
29-07-2019 18.7 (14:40) 11.3 (00:00) 15 16.39 (13:20) 9.72 (13:50) 0.4 0 0.2 0.2 0
28-07-2019 24.3 (18:00) 8.2 (00:00) 16.2 11.67 (17:40) 6.67 (17:40) 0 0 0 0 0
27-07-2019 18.1 (16:30) 11.4 (00:00) 14.8 6.94 (20:50) 3.89 (14:00) 12 2.4 9.6 0 0
26-07-2019 20.7 (18:40) 11.6 (00:00) 16.2 8.89 (00:50) 6.11 (01:10) 0 0 0 0 0
25-07-2019 25.9 (14:00) 15.5 (00:00) 20.7 13.89 (17:00) 10.28 (17:00) 0.8 0 0 0 0.8
24-07-2019 31.5 (15:10) 15.6 (00:00) 23.6 13.33 (21:10) 9.17 (21:10) 0 0 0 0 0

Gráficas

Temp. máximas Temp. mínimas Temp. medias Precipitaciones Rachas de viento máximas Velocidades máximas media en intervalos de 10 minutos

Datos horarios

Fecha y hora oficial Temperatura (ºC) Velocidad del viento (km/h) Dirección del viento Racha (km/h) Dirección de racha Precipitación (mm) Presión (hPa) Tendencia (hPa) Humedad (%)
2019-08-22 23:00:00 21.7 14 Sudeste 20 Sudeste 0 -- -- 58
2019-08-22 22:00:00 22.6 8 Norte 16 Norte 0 -- -- 50
2019-08-22 21:00:00 24.5 7 Norte 17 Nordeste 0 -- -- 43
2019-08-22 20:00:00 26.9 6 Noroeste 19 Noroeste 0 -- -- 42
2019-08-22 19:00:00 28.9 7 Norte 22 Norte 0 -- -- 38
2019-08-22 18:00:00 30.3 9 Nordeste 18 Norte 0 -- -- 30
2019-08-22 17:00:00 31 10 Nordeste 22 Nordeste 0 -- -- 25
2019-08-22 16:00:00 29.9 5 Sudeste 14 Nordeste 0 -- -- 27
2019-08-22 15:00:00 28.9 5 Noroeste 23 Nordeste 0 -- -- 31
2019-08-22 14:00:00 26.2 6 Este 12 Este 0 -- -- 51
2019-08-22 13:00:00 23.9 8 Nordeste 13 Nordeste 0 -- -- 56
2019-08-22 12:00:00 20 6 Nordeste 10 Nordeste 0 -- -- 72
2019-08-22 11:00:00 17.6 2 Este 8 Sur 0 -- -- 82
2019-08-22 10:00:00 14 0 Calma 6 Este 0 -- -- 99
2019-08-22 09:00:00 12.7 0 Calma 6 Nordeste 0 -- -- 99
2019-08-22 08:00:00 12.3 2 Nordeste 9 Nordeste 0 -- -- 98
2019-08-22 07:00:00 12.6 4 Noroeste 17 Noroeste 0 -- -- 98
2019-08-22 06:00:00 12.8 9 Norte 12 Norte 0 -- -- 96
2019-08-22 05:00:00 13 5 Noroeste 11 Norte 0 -- -- 96
2019-08-22 04:00:00 13.2 4 Nordeste 8 Norte 0 -- -- 95
2019-08-22 03:00:00 14.3 4 Nordeste 13 Este 0 -- -- 91
2019-08-22 02:00:00 14 8 Nordeste 13 Este 0 -- -- 93
2019-08-22 01:00:00 14.5 8 Norte 15 Nordeste 0 -- -- 89
2019-08-22 00:00:00 15.4 11 Nordeste 22 Nordeste 0 -- -- 87
2019-08-21 23:00:00 15.8 11 Norte 20 Nordeste 0 -- -- 87
2019-08-21 22:00:00 16.5 11 Norte 22 Norte 0 -- -- 84
2019-08-21 21:00:00 18.1 10 Norte 21 Noroeste 0 -- -- 77
2019-08-21 20:00:00 21.1 6 Norte 25 Noroeste 0 -- -- 67
2019-08-21 19:00:00 23 10 Noroeste 25 Noroeste 0 -- -- 60
2019-08-21 18:00:00 24.8 10 Noroeste 27 Norte 0 -- -- 53
2019-08-21 17:00:00 25.4 9 Norte 22 Noroeste 0 -- -- 48
2019-08-21 16:00:00 25.9 9 Norte 22 Nordeste 0 -- -- 43
2019-08-21 15:00:00 24.8 9 Nordeste 27 Nordeste 0 -- -- 47
2019-08-21 14:00:00 23.4 10 Nordeste 27 Noroeste 0 -- -- 49
2019-08-21 13:00:00 21.3 10 Nordeste 17 Nordeste 0 -- -- 56
2019-08-21 12:00:00 18.8 10 Este 17 Nordeste 0 -- -- 68
2019-08-21 11:00:00 16.6 8 Este 13 Este 0 -- -- 77
2019-08-21 10:00:00 14.5 3 Sudeste 9 Nordeste 0 -- -- 88
2019-08-21 09:00:00 12.4 6 Nordeste 12 Nordeste 0 -- -- 97
2019-08-21 08:00:00 11.4 6 Norte 10 Norte 0 -- -- 96
2019-08-21 07:00:00 12.2 4 Este 10 Este 0 -- -- 93
2019-08-21 06:00:00 12.2 3 Nordeste 6 Nordeste 0 -- -- 93
2019-08-21 05:00:00 12.6 4 Nordeste 8 Nordeste 0 -- -- 91
2019-08-21 04:00:00 12.4 3 Nordeste 10 Nordeste 0 -- -- 92
2019-08-21 03:00:00 13.2 4 Nordeste 10 Nordeste 0 -- -- 90
2019-08-21 02:00:00 13.2 6 Nordeste 9 Nordeste 0 -- -- 90
2019-08-21 01:00:00 13.2 9 Nordeste 13 Norte 0 -- -- 89
2019-08-21 00:00:00 13.7 9 Nordeste 17 Norte 0 -- -- 88
2019-08-20 23:00:00 14.5 12 Nordeste 24 Nordeste 0 -- -- 85
2019-08-20 22:00:00 15.2 9 Nordeste 27 Nordeste 0 -- -- 81
2019-08-20 21:00:00 16.6 15 Nordeste 28 Nordeste 0 -- -- 75
2019-08-20 20:00:00 19 11 Nordeste 28 Nordeste 0 -- -- 65
2019-08-20 19:00:00 20.8 13 Nordeste 27 Nordeste 0 -- -- 59
2019-08-20 18:00:00 21.7 13 Nordeste 27 Nordeste 0 -- -- 55
2019-08-20 17:00:00 22.4 12 Nordeste 30 Norte 0 -- -- 54
2019-08-20 16:00:00 22.2 13 Nordeste 33 Nordeste 0 -- -- 53
2019-08-20 15:00:00 21.4 14 Nordeste 30 Nordeste 0 -- -- 55
2019-08-20 14:00:00 20.7 16 Nordeste 34 Norte 0 -- -- 57
2019-08-20 13:00:00 19.4 16 Nordeste 35 Nordeste 0 -- -- 61
2019-08-20 12:00:00 16.9 22 Nordeste 36 Norte 0 -- -- 67
2019-08-20 11:00:00 17 23 Nordeste 39 Nordeste 0 -- -- 68
2019-08-20 10:00:00 15.3 25 Nordeste 53 Nordeste 0 -- -- 76
2019-08-20 09:00:00 13.7 18 Nordeste 27 Nordeste 0 -- -- 82
2019-08-20 08:00:00 12.3 10 Nordeste 23 Nordeste 0 -- -- 87
2019-08-20 07:00:00 12.7 17 Nordeste 35 Nordeste 0 -- -- 84
2019-08-20 06:00:00 12.6 22 Nordeste 36 Nordeste 0 -- -- 84
2019-08-20 05:00:00 12.2 10 Nordeste 28 Nordeste 0 -- -- 87
2019-08-20 04:00:00 12.4 18 Nordeste 30 Nordeste 0 -- -- 86
2019-08-20 03:00:00 12.1 13 Nordeste 21 Nordeste 0 -- -- 87
2019-08-20 02:00:00 12.3 15 Nordeste 37 Nordeste 0 -- -- 86
2019-08-20 01:00:00 12.6 20 Nordeste 40 Este 0 -- -- 84
2019-08-20 00:00:00 12.5 14 Nordeste 30 Norte 0 -- -- 85
2019-08-19 23:00:00 12.7 22 Nordeste 39 Este 0 -- -- 84
2019-08-19 22:00:00 12.8 11 Nordeste 36 Nordeste 0 -- -- 82
2019-08-19 21:00:00 13.1 20 Nordeste 40 Nordeste 0 -- -- 80
2019-08-19 20:00:00 13.8 21 Nordeste 31 Nordeste 0 -- -- 79
2019-08-19 19:00:00 14.8 14 Nordeste 32 Norte 0 -- -- 75
2019-08-19 18:00:00 15.9 14 Nordeste 32 Nordeste 0 -- -- 70
2019-08-19 17:00:00 17.7 8 Nordeste 26 Nordeste 0 -- -- 64
2019-08-19 16:00:00 20.3 14 Nordeste 28 Nordeste 0 -- -- 56
2019-08-19 15:00:00 19.4 10 Nordeste 27 Nordeste -- -- -- 59
2019-08-19 14:00:00 17.6 4 Sur 26 Este -- -- -- 63
2019-08-19 13:00:00 16.5 14 Nordeste 29 Este 0 -- -- 66
2019-08-19 12:00:00 16.1 12 Este 28 Nordeste 0 -- -- 67
2019-08-19 11:00:00 14.4 6 Nordeste 17 Nordeste 0 -- -- 81
2019-08-19 10:00:00 12.1 9 Nordeste 15 Norte 0 -- -- 89
2019-08-19 09:00:00 10.2 3 Nordeste 13 Norte 0 -- -- 96
2019-08-19 08:00:00 9.7 10 Norte 17 Norte 0 -- -- 95
2019-08-19 07:00:00 9.7 13 Norte 17 Norte 0 -- -- 94
2019-08-19 06:00:00 9.5 7 Norte 11 Norte 0 -- -- 94
2019-08-19 05:00:00 9.9 5 Nordeste 15 Nordeste 0 -- -- 94
2019-08-19 04:00:00 10.5 9 Norte 15 Norte 0 -- -- 91
2019-08-19 03:00:00 10.7 9 Nordeste 15 Nordeste 0 -- -- 89
2019-08-19 02:00:00 11.7 7 Nordeste 10 Nordeste 0 -- -- 87
2019-08-19 01:00:00 12 4 Nordeste 15 Nordeste 0 -- -- 87
2019-08-19 00:00:00 12.2 5 Nordeste 16 Nordeste 0 -- -- 86
2019-08-18 23:00:00 12.5 7 Noroeste 17 Noroeste 0 -- -- 87
2019-08-18 22:00:00 12.7 6 Norte 18 Nordeste 0 -- -- 87
2019-08-18 21:00:00 13.9 6 Norte 16 Norte 0 -- -- 85
2019-08-18 20:00:00 15.1 8 Norte 16 Norte 0 -- -- 81
2019-08-18 19:00:00 15.6 9 Noroeste 21 Noroeste 0 -- -- 82
2019-08-18 18:00:00 15.8 10 Oeste 22 Norte 0 -- -- 85
2019-08-18 17:00:00 16.5 8 Norte 18 Oeste 0 -- -- 84
2019-08-18 16:00:00 17.9 12 Oeste 22 Oeste 0 -- -- 83
2019-08-18 15:00:00 16.8 7 Oeste 20 Norte 0 -- -- 88
2019-08-18 14:00:00 16.5 6 Nordeste 17 Nordeste 0.2 -- -- 92
2019-08-18 13:00:00 15.2 6 Noroeste 15 Noroeste 0 -- -- 95
2019-08-18 12:00:00 14.3 5 Noroeste 21 Norte 0.4 -- -- 95
2019-08-18 11:00:00 14.4 8 Norte 24 Norte 3.2 -- -- 95
2019-08-18 10:00:00 16 0 Calma 14 Noroeste 1.4 -- -- 95
2019-08-18 09:00:00 16.6 10 Noroeste 19 Sudoeste 0 -- -- 89
2019-08-18 08:00:00 17 15 Oeste 33 Oeste 0 -- -- 83
2019-08-18 07:00:00 18.2 16 Sudoeste 36 Oeste 0 -- -- 74
2019-08-18 06:00:00 17.4 9 Sudoeste 22 Sudeste 0 -- -- 73
2019-08-18 05:00:00 17 6 Sur 40 Sudoeste 0 -- -- 76
2019-08-18 04:00:00 16.9 13 Sudoeste 38 Sudoeste 0 -- -- 80
2019-08-18 03:00:00 16.8 27 Sudoeste 42 Oeste 0 -- -- 83
2019-08-18 02:00:00 17 21 Sudoeste 39 Oeste 0 -- -- 86
2019-08-18 01:00:00 17.9 23 Oeste 41 Oeste 0 -- -- 81
2019-08-18 00:00:00 19.3 11 Oeste 30 Sudoeste 0 -- -- 76
2019-08-17 23:00:00 20.1 14 Sudoeste 35 Sudoeste 0 -- -- 75
2019-08-17 22:00:00 21.1 22 Oeste 32 Oeste 0 -- -- 72
2019-08-17 21:00:00 24.4 16 Oeste 36 Oeste 0 -- -- 53
2019-08-17 20:00:00 26.2 23 Sudoeste 37 Sudoeste 0 -- -- 45
2019-08-17 19:00:00 27.9 12 Sudoeste 45 Sudoeste 0 -- -- 41
2019-08-17 18:00:00 27.7 25 Sudoeste 45 Oeste 0 -- -- 43
2019-08-17 17:00:00 28.5 24 Oeste 44 Oeste 0 -- -- 38
2019-08-17 16:00:00 28.3 24 Sudoeste 39 Sudoeste 0 -- -- 40
2019-08-17 15:00:00 27.4 14 Sudoeste 36 Sudoeste 0 -- -- 48
2019-08-17 14:00:00 25.6 23 Sudoeste 37 Sudoeste 0 -- -- 50
2019-08-17 13:00:00 24.5 12 Sudoeste 25 Oeste 0 -- -- 54
2019-08-17 12:00:00 22.8 10 Sudoeste 21 Noroeste 0 -- -- 57
2019-08-17 11:00:00 19.9 3 Oeste 22 Oeste 0 -- -- 70
2019-08-17 10:00:00 16.6 16 Sudoeste 23 Sudoeste 0 -- -- 83
2019-08-17 09:00:00 15.3 15 Oeste 29 Sudoeste 0 -- -- 88
2019-08-17 08:00:00 14.3 14 Oeste 25 Oeste 0 -- -- 88
2019-08-17 07:00:00 16 7 Oeste 16 Oeste 0 -- -- 73
2019-08-17 06:00:00 15.6 6 Nordeste 14 Oeste 0 -- -- 81
2019-08-17 05:00:00 16.5 3 Norte 13 Sudeste 0 -- -- 74
2019-08-17 04:00:00 16 3 Sudoeste 9 Oeste 0 -- -- 77
2019-08-17 03:00:00 16.9 4 Nordeste 17 Oeste 0 -- -- 80
2019-08-17 02:00:00 17.4 4 Sur 15 Sur 0 -- -- 82
2019-08-17 01:00:00 17 8 Sudoeste 28 Sudoeste 0 -- -- 85
2019-08-17 00:00:00 18.2 21 Oeste 28 Oeste 0 -- -- 81
2019-08-16 23:00:00 19.1 18 Oeste 25 Sudoeste 0 -- -- 75
2019-08-16 22:00:00 20.6 16 Oeste 27 Oeste 0 -- -- 66
2019-08-16 21:00:00 23.4 9 Oeste 27 Oeste 0 -- -- 53
2019-08-16 20:00:00 24.3 21 Oeste 30 Oeste 0 -- -- 47
2019-08-16 19:00:00 26.5 16 Oeste 33 Oeste 0 -- -- 37
2019-08-16 18:00:00 27.9 18 Oeste 41 Oeste 0 -- -- 36
2019-08-16 17:00:00 28.8 18 Oeste 40 Oeste 0 -- -- 31
2019-08-16 16:00:00 28.8 13 Sudoeste 36 Oeste 0 -- -- 25
2019-08-16 15:00:00 27.5 18 Oeste 33 Oeste 0 -- -- 30
2019-08-16 14:00:00 26.3 17 Sudoeste 27 Oeste 0 -- -- 31
2019-08-16 13:00:00 24.9 8 Oeste 19 Oeste 0 -- -- 37
2019-08-16 12:00:00 22.3 6 Noroeste 21 Nordeste 0 -- -- 58
2019-08-16 11:00:00 19.4 5 Sudoeste 12 Oeste 0 -- -- 71
2019-08-16 10:00:00 16.8 0 Calma 13 Noroeste 0 -- -- 83
2019-08-16 09:00:00 14.4 0 Calma 10 Este 0 -- -- 87
2019-08-16 08:00:00 13.2 7 Este 11 Sudeste 0 -- -- 91
2019-08-16 07:00:00 12.5 3 Noroeste 12 Noroeste 0 -- -- 94
2019-08-16 06:00:00 13 4 Oeste 9 Este 0 -- -- 90
2019-08-16 05:00:00 13 6 Sudeste 9 Noroeste 0 -- -- 94
2019-08-16 04:00:00 13.6 3 Este 5 Este 0 -- -- 92
2019-08-16 03:00:00 13.6 0 Calma 8 Este 0 -- -- 91
2019-08-16 02:00:00 13.7 8 Este 9 Este 0 -- -- 91
2019-08-16 01:00:00 14.5 5 Este 7 Este 0 -- -- 87
2019-08-16 00:00:00 15.2 6 Este 8 Este 0 -- -- 84
2019-08-15 23:00:00 16.6 0 Calma 14 Norte 0 -- -- 77
2019-08-15 22:00:00 18.1 7 Norte 15 Norte 0 -- -- 72
2019-08-15 21:00:00 21.3 4 Oeste 17 Norte 0 -- -- 63
2019-08-15 20:00:00 23.4 10 Norte 18 Noroeste 0 -- -- 56
2019-08-15 19:00:00 24 10 Norte 20 Nordeste 0 -- -- 54
2019-08-15 18:00:00 24.9 8 Nordeste 23 Nordeste 0 -- -- 53
2019-08-15 17:00:00 25.8 10 Nordeste 23 Norte 0 -- -- 51
2019-08-15 16:00:00 26.1 8 Sur 34 Sudeste 0 -- -- 49
2019-08-15 15:00:00 25.5 5 Oeste 24 Sudoeste 0 -- -- 51
2019-08-15 14:00:00 24.2 6 Oeste 23 Nordeste 0 -- -- 50
2019-08-15 13:00:00 21.9 8 Este 19 Este 0 -- -- 52
2019-08-15 12:00:00 19.7 8 Sudeste 15 Este 0 -- -- 72
2019-08-15 11:00:00 17.7 6 Este 14 Nordeste 0 -- -- 80
2019-08-15 10:00:00 16.1 6 Nordeste 11 Nordeste 0 -- -- 78
2019-08-15 09:00:00 13.8 5 Este 8 Sudeste 0 -- -- 94
2019-08-15 08:00:00 13.1 0 Calma 5 Este 0 -- -- 94
2019-08-15 07:00:00 13.4 4 Sudeste 6 Sudeste 0 -- -- 93
2019-08-15 06:00:00 14 2 Este 6 Este 0 -- -- 95
2019-08-15 05:00:00 14.6 0 Calma 5 Este 0 -- -- 94
2019-08-15 04:00:00 14.9 0 Calma 4 Nordeste 0 -- -- 95
2019-08-15 03:00:00 15 3 Nordeste 7 Noroeste 0 -- -- 95
2019-08-15 02:00:00 14.8 0 Calma 8 Noroeste 0 -- -- 95
2019-08-15 01:00:00 16 0 Calma 8 Oeste 0 -- -- 92
2019-08-15 00:00:00 15.6 8 Oeste 14 Oeste 0 -- -- 92
2019-08-14 23:00:00 16.5 7 Sudoeste 21 Oeste 0 -- -- 89
2019-08-14 22:00:00 17.7 13 Oeste 32 Oeste 0 -- -- 85
2019-08-14 21:00:00 20.3 12 Oeste 26 Oeste 0 -- -- 74
2019-08-14 20:00:00 22 15 Oeste 29 Oeste 0 -- -- 70
2019-08-14 19:00:00 21.4 17 Oeste 24 Oeste 0 -- -- 75
2019-08-14 18:00:00 22.1 9 Oeste 21 Oeste 0 -- -- 70
2019-08-14 17:00:00 22.7 10 Noroeste 23 Oeste 0 -- -- 67
2019-08-14 16:00:00 22.5 12 Oeste 26 Oeste 0 -- -- 67
2019-08-14 15:00:00 22.9 10 Noroeste 22 Oeste 0 -- -- 63
2019-08-14 14:00:00 22.4 14 Sudoeste 26 Sudoeste 0 -- -- 60
2019-08-14 13:00:00 23.1 5 Noroeste 19 Oeste 0 -- -- 59
2019-08-14 12:00:00 20 4 Sudeste 18 Noroeste 0 -- -- 56
2019-08-14 11:00:00 18.8 6 Oeste 12 Oeste 0 -- -- 52
2019-08-14 10:00:00 17.8 3 Este 9 Este 0 -- -- 68
2019-08-14 09:00:00 15.2 4 Este 9 Sudeste 0 -- -- 74
2019-08-14 08:00:00 13.5 0 Calma 8 Nordeste 0 -- -- 78
2019-08-14 07:00:00 13.3 3 Este 8 Este 0 -- -- 85
2019-08-14 06:00:00 13.4 0 Calma 12 Sudeste 0 -- -- 86
2019-08-14 05:00:00 13.1 5 Este 10 Noroeste 0 -- -- 88
2019-08-14 04:00:00 12.9 8 Noroeste 10 Noroeste 0 -- -- 88
2019-08-14 03:00:00 13.2 5 Este 11 Noroeste 0 -- -- 89
2019-08-14 02:00:00 13.9 0 Calma 10 Sudeste 0 -- -- 86
2019-08-14 01:00:00 14.4 5 Sudeste 9 Sudeste 0 -- -- 85
2019-08-14 00:00:00 15.2 0 Calma 5 Nordeste 0 -- -- 81
2019-08-13 23:00:00 15.7 0 Calma 12 Norte 0 -- -- 78
2019-08-13 22:00:00 16.5 4 Norte 10 Norte 0 -- -- 73
2019-08-13 21:00:00 18.6 8 Noroeste 16 Norte 0 -- -- 67
2019-08-13 20:00:00 20.7 11 Norte 21 Norte 0 -- -- 61
2019-08-13 19:00:00 24 15 Noroeste 29 Noroeste 0 -- -- 39
2019-08-13 18:00:00 24.5 15 Oeste 28 Oeste 0 -- -- 38
2019-08-13 17:00:00 24.4 10 Oeste 24 Oeste 0 -- -- 42
2019-08-13 16:00:00 23.2 9 Noroeste 26 Norte 0 -- -- 40
2019-08-13 15:00:00 22.4 7 Noroeste 27 Noroeste 0 -- -- 42
2019-08-13 14:00:00 21.6 11 Noroeste 21 Noroeste 0 -- -- 44
2019-08-13 13:00:00 19.2 5 Sudeste 13 Nordeste 0 -- -- 57
2019-08-13 12:00:00 16.9 6 Nordeste 13 Nordeste 0 -- -- 66
2019-08-13 11:00:00 14.5 7 Este 13 Este 0 -- -- 73
2019-08-13 10:00:00 12.4 3 Sudeste 9 Nordeste 0 -- -- 82
2019-08-13 09:00:00 10.9 0 Calma 8 Este 0 -- -- 89
2019-08-13 08:00:00 8.7 5 Este 6 Este 0 -- -- 94
2019-08-13 07:00:00 9 0 Calma 7 Norte 0 -- -- 92
2019-08-13 06:00:00 9.4 0 Calma 6 Nordeste 0 -- -- 90
2019-08-13 05:00:00 9.8 2 Nordeste 8 Norte 0 -- -- 89
2019-08-13 04:00:00 9.3 6 Nordeste 8 Nordeste 0 -- -- 90
2019-08-13 03:00:00 9.5 6 Este 13 Norte 0 -- -- 89
2019-08-13 02:00:00 10.5 10 Nordeste 20 Nordeste 0 -- -- 86
2019-08-13 01:00:00 11.3 13 Nordeste 27 Nordeste 0 -- -- 83
2019-08-13 00:00:00 11.7 14 Nordeste 24 Nordeste 0 -- -- 81
2019-08-12 23:00:00 11.9 8 Nordeste 21 Nordeste 0 -- -- 80
2019-08-12 22:00:00 12.2 10 Nordeste 23 Norte 0 -- -- 78
2019-08-12 21:00:00 13.6 12 Noroeste 26 Norte 0 -- -- 73
2019-08-12 20:00:00 16.3 9 Noroeste 23 Norte 0 -- -- 65
2019-08-12 19:00:00 18 6 Norte 22 Nordeste 0 -- -- 59
2019-08-12 18:00:00 17.5 8 Nordeste 23 Nordeste 0 -- -- 55
2019-08-12 17:00:00 18.1 6 Norte 18 Noroeste 0 -- -- 49
2019-08-12 16:00:00 18.8 6 Noroeste 19 Nordeste 0 -- -- 46
2019-08-12 15:00:00 18.5 5 Sur 17 Nordeste 0 -- -- 47
2019-08-12 14:00:00 18 12 Este 25 Este 0 -- -- 47
2019-08-12 13:00:00 17.7 12 Nordeste 24 Nordeste 0 -- -- 55
2019-08-12 12:00:00 14.5 5 Sudeste 16 Este 0 -- -- 68
2019-08-12 11:00:00 14 4 Este 15 Oeste 0 -- -- 72
2019-08-12 10:00:00 12.1 3 Este 8 Este 0 -- -- 84
2019-08-12 09:00:00 11.2 0 Calma 5 Este 0 -- -- 89
2019-08-12 08:00:00 9.7 0 Calma 4 Oeste 0 -- -- 90
2019-08-12 07:00:00 9.4 2 Oeste 7 Oeste 0 -- -- 90
2019-08-12 06:00:00 9.7 0 Calma 4 Oeste 0 -- -- 89
2019-08-12 05:00:00 9.7 2 Oeste 8 Oeste 0 -- -- 92
2019-08-12 04:00:00 10.1 6 Oeste 9 Oeste 0 -- -- 92
2019-08-12 03:00:00 9.9 5 Oeste 16 Oeste 0 -- -- 93
2019-08-12 02:00:00 9.3 8 Oeste 19 Sudoeste 0 -- -- 91
2019-08-12 01:00:00 9.9 14 Oeste 18 Oeste 0 -- -- 92
2019-08-12 00:00:00 10.5 9 Oeste 14 Oeste 0 -- -- 88
2019-08-11 23:00:00 10.7 9 Oeste 17 Oeste 0 -- -- 87
2019-08-11 22:00:00 11.1 6 Oeste 17 Oeste 0 -- -- 85
2019-08-11 21:00:00 13.5 4 Oeste 13 Noroeste 0 -- -- 78
2019-08-11 20:00:00 13.7 9 Oeste 22 Oeste 0 -- -- 78
2019-08-11 19:00:00 15 6 Oeste 16 Oeste 0 -- -- 66
2019-08-11 18:00:00 13.8 10 Oeste 19 Oeste 0 -- -- 75
2019-08-11 17:00:00 13.4 8 Oeste 34 Oeste 0.6 -- -- 89
2019-08-11 16:00:00 15 16 Oeste 45 Oeste 0.8 -- -- 83
2019-08-11 15:00:00 18.3 16 Noroeste 36 Noroeste 0 -- -- 56
2019-08-11 14:00:00 18.4 17 Sudoeste 42 Sudoeste 0 -- -- 52
2019-08-11 13:00:00 17.7 9 Oeste 23 Oeste 0 -- -- 54
2019-08-11 12:00:00 16.2 10 Oeste 21 Oeste 0 -- -- 63
2019-08-11 11:00:00 15.2 10 Sudeste 22 Oeste 0 -- -- 68
2019-08-11 10:00:00 12.5 12 Oeste 19 Noroeste 0 -- -- 85
2019-08-11 09:00:00 11.6 15 Noroeste 25 Oeste 0 -- -- 92
2019-08-11 08:00:00 10.9 6 Oeste 9 Oeste 0 -- -- 89
2019-08-11 07:00:00 11.9 3 Noroeste 9 Oeste 0 -- -- 82
2019-08-11 06:00:00 12.5 2 Oeste 9 Oeste 0 -- -- 84
2019-08-11 05:00:00 12.5 2 Noroeste 8 Noroeste 0 -- -- 89
2019-08-11 04:00:00 12.4 7 Noroeste 11 Noroeste 0 -- -- 91
2019-08-11 03:00:00 13.2 4 Norte 8 Nordeste 0 -- -- 87
2019-08-11 02:00:00 13.5 5 Norte 10 Norte 0 -- -- 85
2019-08-11 01:00:00 13.8 3 Nordeste 10 Norte 0 -- -- 84
2019-08-11 00:00:00 14.1 3 Norte 10 Norte 0 -- -- 83
2019-08-10 23:00:00 14.5 0 Calma 15 Norte 0 -- -- 82
2019-08-10 22:00:00 14.8 5 Noroeste 20 Norte 0 -- -- 80
2019-08-10 21:00:00 15.9 10 Noroeste 22 Norte 0 -- -- 76
2019-08-10 20:00:00 19.3 10 Norte 29 Noroeste 0 -- -- 63
2019-08-10 19:00:00 20.9 15 Oeste 27 Oeste 0 -- -- 47
2019-08-10 18:00:00 21.3 12 Noroeste 26 Oeste 0 -- -- 48
2019-08-10 17:00:00 22.1 14 Oeste 29 Oeste 0 -- -- 45
2019-08-10 16:00:00 21.8 17 Oeste 31 Oeste 0 -- -- 46
2019-08-10 15:00:00 20.3 14 Oeste 28 Sudoeste 0 -- -- 49
2019-08-10 14:00:00 20.1 15 Sudoeste 26 Oeste 0 -- -- 47
2019-08-10 13:00:00 17.6 9 Oeste 27 Oeste 0 -- -- 63
2019-08-10 12:00:00 17.5 13 Sudoeste 24 Oeste 0 -- -- 63
2019-08-10 11:00:00 16.1 16 Sudoeste 27 Sudoeste 0 -- -- 71
2019-08-10 10:00:00 14.5 17 Oeste 28 Sudoeste 0 -- -- 77
2019-08-10 09:00:00 13.4 17 Sudoeste 31 Sudoeste 0 -- -- 79
2019-08-10 08:00:00 13.1 16 Sudoeste 36 Sudoeste 0 -- -- 80
2019-08-10 07:00:00 13.2 20 Sudoeste 37 Sudoeste 0 -- -- 81
2019-08-10 06:00:00 13.1 19 Sudoeste 30 Sudoeste 0 -- -- 81
2019-08-10 05:00:00 13 15 Sudoeste 31 Sudoeste 0 -- -- 83
2019-08-10 04:00:00 13.5 17 Sudoeste 24 Sudoeste 0 -- -- 79
2019-08-10 03:00:00 13.9 12 Sur 32 Sudoeste 0 -- -- 79
2019-08-10 02:00:00 14.2 18 Sudoeste 32 Sudoeste 0 -- -- 81
2019-08-10 01:00:00 14.3 23 Sudoeste 35 Oeste 0 -- -- 79
2019-08-10 00:00:00 14.8 7 Sur 34 Oeste 0 -- -- 77
2019-08-09 23:00:00 15.3 13 Sudoeste 40 Sudoeste 0 -- -- 75
2019-08-09 22:00:00 15.9 18 Sudoeste 40 Oeste 0 -- -- 72
2019-08-09 21:00:00 16.4 22 Sudoeste 48 Sudoeste 0 -- -- 70
2019-08-09 20:00:00 17.1 36 Sudoeste 61 Sudoeste 0 -- -- 66
2019-08-09 19:00:00 18.1 28 Sudoeste 57 Sudoeste 0 -- -- 62
2019-08-09 18:00:00 18.5 35 Sudoeste 67 Sudoeste 0 -- -- 59
2019-08-09 17:00:00 19.3 38 Sudoeste 61 Sudoeste 0 -- -- 61
2019-08-09 16:00:00 19.7 36 Sudoeste 74 Sudoeste 0 -- -- 63
2019-08-09 15:00:00 20 42 Sudoeste 73 Oeste 0 -- -- 56
2019-08-09 14:00:00 19.4 33 Sudoeste 63 Oeste 0 -- -- 57
2019-08-09 13:00:00 19 38 Sudoeste 74 Sudoeste 0 -- -- 57
2019-08-09 12:00:00 18 33 Sudoeste 59 Oeste 0 -- -- 63
2019-08-09 11:00:00 17.5 26 Sudoeste 62 Sudoeste 0 -- -- 65
2019-08-09 10:00:00 16.7 32 Sudoeste 72 Sudoeste 0 -- -- 67
2019-08-09 09:00:00 15.4 32 Sudoeste 56 Sudoeste 0 -- -- 73
2019-08-09 08:00:00 14.8 32 Sudoeste 58 Oeste 0 -- -- 75
2019-08-09 07:00:00 14.4 34 Sudoeste 59 Oeste 0 -- -- 83
2019-08-09 06:00:00 14.6 37 Sudoeste 68 Sudoeste 0 -- -- 86
2019-08-09 05:00:00 16.4 42 Sudoeste 73 Sudoeste 0.4 -- -- 90
2019-08-09 04:00:00 18 34 Sudoeste 57 Sudoeste 2.8 -- -- 94
2019-08-09 03:00:00 19.9 24 Sur 45 Sudoeste 0.8 -- -- 82
2019-08-09 02:00:00 21.6 27 Sudoeste 72 Oeste 0 -- -- 70
2019-08-09 01:00:00 21.9 30 Sudoeste 65 Sur 0 -- -- 68
2019-08-09 00:00:00 22.2 28 Sudoeste 52 Sur 0 -- -- 69
2019-08-08 23:00:00 22.3 34 Sudoeste 62 Sur 0 -- -- 67
2019-08-08 22:00:00 22.5 27 Sur 56 Sur 0 -- -- 64
2019-08-08 21:00:00 22.5 28 Sudoeste 55 Oeste 0 -- -- 64
2019-08-08 20:00:00 23.3 29 Sur 69 Oeste 0 -- -- 63
2019-08-08 19:00:00 23.8 22 Sudoeste 61 Sur 0 -- -- 68
2019-08-08 18:00:00 24.7 30 Sur 53 Sur 0.2 -- -- 66
2019-08-08 17:00:00 22.8 16 Sudoeste 45 Oeste 0.4 -- -- 79
2019-08-08 16:00:00 21.3 24 Oeste 41 Sudoeste 0 -- -- 86
2019-08-08 15:00:00 22 20 Sudoeste 43 Sudoeste 0.2 -- -- 83
2019-08-08 14:00:00 24 19 Sudoeste 63 Oeste 0 -- -- 68
2019-08-08 13:00:00 25.2 24 Sudoeste 57 Sudoeste 0 -- -- 61
2019-08-08 12:00:00 23.6 23 Sudoeste 41 Oeste 0 -- -- 66
2019-08-08 11:00:00 22.8 22 Sur 48 Sur 0 -- -- 69
2019-08-08 10:00:00 21.4 18 Sur 36 Sur 0 -- -- 72
2019-08-08 09:00:00 20.7 21 Sur 38 Sur 0 -- -- 72
2019-08-08 08:00:00 20.2 19 Sur 31 Sur 0 -- -- 75
2019-08-08 07:00:00 20 12 Sur 25 Sur 0 -- -- 76
2019-08-08 06:00:00 19.8 12 Sur 22 Sur 0 -- -- 76
2019-08-08 05:00:00 19.2 10 Sur 23 Sudeste 0 -- -- 78
2019-08-08 04:00:00 19.4 13 Sur 29 Sur 0 -- -- 77
2019-08-08 03:00:00 19.3 13 Sudoeste 28 Sur 0 -- -- 77
2019-08-08 02:00:00 19.2 16 Sur 31 Sur 0 -- -- 77
2019-08-08 01:00:00 18.7 16 Sur 31 Sur 0 -- -- 80
2019-08-08 00:00:00 18.3 17 Sudoeste 32 Sur 0 -- -- 83
2019-08-07 23:00:00 19.2 20 Sur 35 Sudoeste 0 -- -- 75
2019-08-07 22:00:00 18.8 19 Sudoeste 31 Sur 0 -- -- 78
2019-08-07 21:00:00 18.8 18 Sudoeste 30 Sur 0 -- -- 79
2019-08-07 20:00:00 18.9 15 Sur 28 Sur 0 -- -- 81
2019-08-07 19:00:00 18.6 8 Sudoeste 15 Sur 0.2 -- -- 86
2019-08-07 18:00:00 17.8 10 Sudeste 17 Sudeste 0 -- -- 91
2019-08-07 17:00:00 17 11 Sudeste 18 Sudeste 0.4 -- -- 94
2019-08-07 16:00:00 18.4 5 Este 20 Sudoeste 0.6 -- -- 90
2019-08-07 15:00:00 18.6 19 Sudoeste 35 Sudoeste 0.2 -- -- 84
2019-08-07 14:00:00 21.4 12 Oeste 27 Oeste 0 -- -- 63
2019-08-07 13:00:00 21 14 Sudoeste 31 Sudoeste 0 -- -- 61
2019-08-07 12:00:00 20 10 Noroeste 19 Noroeste 0 -- -- 73
2019-08-07 11:00:00 18.9 6 Noroeste 12 Sur 0 -- -- 76
2019-08-07 10:00:00 17.7 4 Este 11 Sudeste 0 -- -- 73
2019-08-07 09:00:00 15.8 7 Sudeste 11 Este 0 -- -- 79
2019-08-07 08:00:00 14.6 0 Calma 6 Este 0 -- -- 83
2019-08-07 07:00:00 14.5 0 Calma 10 Sudeste 0 -- -- 83
2019-08-07 06:00:00 14.3 5 Sudeste 8 Sudoeste 0 -- -- 85
2019-08-07 05:00:00 14.8 0 Calma 7 Nordeste 0 -- -- 91
2019-08-07 04:00:00 15 2 Este 11 Oeste 0 -- -- 90
2019-08-07 03:00:00 15.5 0 Calma 15 Oeste 0 -- -- 91
2019-08-07 02:00:00 15.5 4 Oeste 8 Oeste 0 -- -- 89
2019-08-07 01:00:00 16 4 Este 12 Oeste 0 -- -- 90
2019-08-07 00:00:00 16.4 7 Oeste 17 Noroeste 0 -- -- 92
2019-08-06 23:00:00 17.4 9 Este 25 Sudeste 0 -- -- 84
2019-08-06 22:00:00 17.6 8 Sudeste 13 Sudeste 0 -- -- 83
2019-08-06 21:00:00 17.7 5 Sur 15 Sudeste 0 -- -- 85
2019-08-06 20:00:00 17.6 8 Nordeste 20 Sur 0 -- -- 88
2019-08-06 19:00:00 18 12 Sudoeste 25 Sudoeste 0.2 -- -- 87
2019-08-06 18:00:00 18.9 11 Oeste 31 Oeste 0 -- -- 86
2019-08-06 17:00:00 20.1 17 Oeste 28 Oeste 0 -- -- 72
2019-08-06 16:00:00 21.7 12 Oeste 28 Noroeste 0 -- -- 69
2019-08-06 15:00:00 22.1 14 Noroeste 27 Noroeste 0 -- -- 66
2019-08-06 14:00:00 23.5 13 Oeste 23 Oeste 0 -- -- 63
2019-08-06 13:00:00 22.2 5 Este 20 Sudoeste 0 -- -- 69
2019-08-06 12:00:00 18.9 11 Oeste 21 Sudoeste 0 -- -- 79
2019-08-06 11:00:00 17.1 17 Sudoeste 25 Oeste 0 -- -- 87
2019-08-06 10:00:00 17.3 5 Oeste 11 Oeste 0 -- -- 87
2019-08-06 09:00:00 16.8 3 Oeste 13 Oeste 0 -- -- 90
2019-08-06 08:00:00 16.2 8 Sudeste 12 Este 0 -- -- 91
2019-08-06 07:00:00 15.9 6 Noroeste 12 Oeste 0 -- -- 93
2019-08-06 06:00:00 15.2 9 Oeste 18 Oeste 0 -- -- 94
2019-08-06 05:00:00 16.2 3 Este 8 Este 0 -- -- 88
2019-08-06 04:00:00 16.6 0 Calma 7 Oeste 0 -- -- 87
2019-08-06 03:00:00 16.4 0 Calma 9 Oeste 0 -- -- 87
2019-08-06 02:00:00 16.3 9 Noroeste 12 Noroeste 0 -- -- 87
2019-08-06 01:00:00 17.1 3 Oeste 9 Noroeste 0 -- -- 83
2019-08-06 00:00:00 17.7 7 Oeste 10 Oeste 0 -- -- 81
2019-08-05 23:00:00 18.8 5 Oeste 12 Noroeste 0 -- -- 77
2019-08-05 22:00:00 19.6 3 Oeste 17 Norte 0 -- -- 73
2019-08-05 21:00:00 22 10 Norte 17 Noroeste 0 -- -- 66
2019-08-05 20:00:00 23.9 9 Norte 23 Norte 0 -- -- 61
2019-08-05 19:00:00 27.1 6 Norte 24 Noroeste 0 -- -- 52
2019-08-05 18:00:00 27.6 17 Oeste 35 Oeste 0 -- -- 46
2019-08-05 17:00:00 28.2 10 Noroeste 26 Oeste 0 -- -- 43
2019-08-05 16:00:00 28 13 Noroeste 30 Noroeste 0 -- -- 41
2019-08-05 15:00:00 26.8 7 Norte 29 Oeste 0 -- -- 42
2019-08-05 14:00:00 25.5 7 Oeste 17 Norte 0 -- -- 44
2019-08-05 13:00:00 23.6 7 Noroeste 19 Noroeste 0 -- -- 44
2019-08-05 12:00:00 21.8 4 Oeste 13 Este 0 -- -- 59
2019-08-05 11:00:00 19.5 5 Este 15 Este 0 -- -- 74
2019-08-05 10:00:00 17.8 6 Este 18 Este 0 -- -- 81
2019-08-05 09:00:00 16.1 6 Este 12 Sudeste 0 -- -- 90
2019-08-05 08:00:00 15.1 5 Sur 10 Oeste 0 -- -- 93
2019-08-05 07:00:00 15.1 5 Sudoeste 11 Oeste 0 -- -- 94
2019-08-05 06:00:00 15.1 8 Sudoeste 17 Oeste 0 -- -- 93
2019-08-05 05:00:00 15.3 5 Oeste 11 Oeste 0 -- -- 93
2019-08-05 04:00:00 15.6 5 Sudoeste 10 Sudeste 0 -- -- 91
2019-08-05 03:00:00 15.8 0 Calma 4 Sudeste 0 -- -- 91
2019-08-05 02:00:00 15.7 0 Calma 5 Noroeste 0 -- -- 92
2019-08-05 01:00:00 15.2 5 Noroeste 10 Noroeste 0 -- -- 94
2019-08-05 00:00:00 15.8 0 Calma 5 Noroeste 0 -- -- 90
2019-08-04 23:00:00 16.3 0 Calma 6 Nordeste 0 -- -- 87
2019-08-04 22:00:00 17.6 0 Calma 18 Noroeste 0 -- -- 82
2019-08-04 21:00:00 19.5 12 Noroeste 22 Norte 0 -- -- 75
2019-08-04 20:00:00 21.6 10 Noroeste 22 Norte 0 -- -- 68
2019-08-04 19:00:00 23.8 9 Norte 27 Oeste 0 -- -- 62
2019-08-04 18:00:00 27.1 12 Oeste 27 Oeste 0 -- -- 51
2019-08-04 17:00:00 27.1 14 Oeste 27 Noroeste 0 -- -- 44
2019-08-04 16:00:00 26.4 4 Nordeste 24 Noroeste 0 -- -- 48
2019-08-04 15:00:00 25 8 Noroeste 25 Noroeste 0 -- -- 52
2019-08-04 14:00:00 23.6 9 Oeste 26 Oeste 0 -- -- 60
2019-08-04 13:00:00 20.3 2 Este 14 Oeste 0 -- -- 76
2019-08-04 12:00:00 19.1 5 Noroeste 17 Oeste 0 -- -- 82
2019-08-04 11:00:00 17.6 3 Este 10 Noroeste 0 -- -- 89
2019-08-04 10:00:00 16.9 4 Noroeste 10 Noroeste 0 -- -- 93
2019-08-04 09:00:00 16.3 0 Calma 6 Oeste 0 -- -- 94
2019-08-04 08:00:00 16.2 0 Calma 7 Noroeste 0 -- -- 94
2019-08-04 07:00:00 16.3 6 Noroeste 8 Noroeste 0 -- -- 94
2019-08-04 06:00:00 16.5 3 Noroeste 6 Noroeste 0 -- -- 93
2019-08-04 05:00:00 16.7 0 Calma 7 Noroeste 0 -- -- 92
2019-08-04 04:00:00 16.8 2 Noroeste 8 Norte 0 -- -- 92
2019-08-04 03:00:00 16.5 6 Norte 8 Norte 0 -- -- 93
2019-08-04 02:00:00 16.7 0 Calma 6 Noroeste 0 -- -- 91
2019-08-04 01:00:00 16.7 3 Noroeste 6 Oeste 0 -- -- 90
2019-08-04 00:00:00 17.7 3 Este 9 Oeste 0 -- -- 86
2019-08-03 23:00:00 17.4 8 Noroeste 11 Oeste 0 -- -- 88
2019-08-03 22:00:00 18.9 4 Noroeste 15 Noroeste 0 -- -- 80
2019-08-03 21:00:00 21.4 9 Noroeste 18 Norte 0 -- -- 71
2019-08-03 20:00:00 24.1 8 Norte 22 Norte 0 -- -- 62
2019-08-03 19:00:00 27.4 8 Norte 28 Oeste 0 -- -- 50
2019-08-03 18:00:00 28.1 15 Oeste 33 Noroeste 0 -- -- 34
2019-08-03 17:00:00 29 15 Oeste 33 Oeste 0 -- -- 35
2019-08-03 16:00:00 28.9 13 Noroeste 32 Noroeste 0 -- -- 36
2019-08-03 15:00:00 27.5 13 Oeste 25 Oeste 0 -- -- 46
2019-08-03 14:00:00 26.5 7 Oeste 27 Noroeste 0 -- -- 52
2019-08-03 13:00:00 24.9 4 Nordeste 14 Este 0 -- -- 57
2019-08-03 12:00:00 22.6 6 Este 12 Nordeste 0 -- -- 69
2019-08-03 11:00:00 20.7 3 Este 13 Oeste 0 -- -- 76
2019-08-03 10:00:00 18.4 3 Sudoeste 7 Oeste 0 -- -- 84
2019-08-03 09:00:00 16.7 4 Este 6 Este 0 -- -- 88
2019-08-03 08:00:00 15.1 0 Calma 3 Norte 0 -- -- 94
2019-08-03 07:00:00 15.1 0 Calma 5 Nordeste 0 -- -- 92
2019-08-03 06:00:00 15.5 0 Calma 3 Este 0 -- -- 91
2019-08-03 05:00:00 15.8 0 Calma 3 Nordeste 0 -- -- 88
2019-08-03 04:00:00 15.8 2 Nordeste 5 Nordeste 0 -- -- 85
2019-08-03 03:00:00 16.6 2 Sudeste 10 Sudeste 0 -- -- 82
2019-08-03 02:00:00 17.1 5 Este 6 Este 0 -- -- 79
2019-08-03 01:00:00 17.7 0 Calma 6 Norte 0 -- -- 76
2019-08-03 00:00:00 18.6 3 Nordeste 6 Nordeste 0 -- -- 72
2019-08-02 23:00:00 19.4 0 Calma 9 Oeste 0 -- -- 64
2019-08-02 22:00:00 20.6 0 Calma 12 Norte 0 -- -- 64
2019-08-02 21:00:00 23.4 10 Noroeste 18 Noroeste 0 -- -- 53
2019-08-02 20:00:00 25.3 11 Norte 22 Nordeste 0 -- -- 57
2019-08-02 19:00:00 28.1 8 Noroeste 19 Norte 0 -- -- 47
2019-08-02 18:00:00 28.2 7 Sudoeste 38 Sur 0 -- -- 46
2019-08-02 17:00:00 28.1 6 Sur 17 Sudoeste 0 -- -- 45
2019-08-02 16:00:00 27.3 8 Este 18 Este 0 -- -- 45
2019-08-02 15:00:00 25.4 7 Sur 21 Este 0 -- -- 50
2019-08-02 14:00:00 23 9 Este 19 Nordeste 0 -- -- 60
2019-08-02 13:00:00 20.5 7 Este 17 Este 0 -- -- 70
2019-08-02 12:00:00 18 6 Este 17 Este 0 -- -- 80
2019-08-02 11:00:00 15 8 Nordeste 13 Nordeste 0 -- -- 90
2019-08-02 10:00:00 13.3 2 Este 5 Este 0 -- -- 97
2019-08-02 09:00:00 12.9 0 Calma 7 Sudeste 0 -- -- 98
2019-08-02 08:00:00 12.5 0 Calma 9 Oeste 0 -- -- 98
2019-08-02 07:00:00 12.4 5 Oeste 8 Sudoeste 0 -- -- 97
2019-08-02 06:00:00 12.8 2 Noroeste 8 Sudoeste 0 -- -- 97
2019-08-02 05:00:00 13.7 0 Calma 6 Este 0 -- -- 97
2019-08-02 04:00:00 13.3 3 Oeste 8 Oeste 0 -- -- 96
2019-08-02 03:00:00 13.6 0 Calma 13 Norte 0 -- -- 96
2019-08-02 02:00:00 13.7 8 Nordeste 13 Norte 0 -- -- 95
2019-08-02 01:00:00 14.5 2 Nordeste 7 Nordeste 0 -- -- 91
2019-08-02 00:00:00 14.9 0 Calma 5 Este 0 -- -- 90
2019-08-01 23:00:00 15.5 0 Calma 12 Norte 0 -- -- 89
2019-08-01 22:00:00 16.7 5 Nordeste 13 Nordeste 0 -- -- 83
2019-08-01 21:00:00 19.7 8 Norte 17 Noroeste 0 -- -- 73
2019-08-01 20:00:00 21.5 10 Noroeste 28 Noroeste 0 -- -- 66
2019-08-01 19:00:00 23.7 14 Norte 25 Norte 0 -- -- 59
2019-08-01 18:00:00 25.2 9 Norte 21 Norte 0 -- -- 51
2019-08-01 17:00:00 25.2 14 Este 26 Nordeste 0 -- -- 48
2019-08-01 16:00:00 24.6 12 Este 24 Este 0 -- -- 47
2019-08-01 15:00:00 23.6 10 Nordeste 24 Norte 0 -- -- 51
2019-08-01 14:00:00 21.8 10 Este 27 Este 0 -- -- 57
2019-08-01 13:00:00 21 11 Este 22 Este 0 -- -- 61
2019-08-01 12:00:00 19.1 10 Este 21 Este 0 -- -- 67
2019-08-01 11:00:00 17 8 Este 13 Nordeste 0 -- -- 78
2019-08-01 10:00:00 15.5 4 Este 14 Nordeste 0 -- -- 86
2019-08-01 09:00:00 13.4 4 Nordeste 14 Norte 0 -- -- 98
2019-08-01 08:00:00 12.1 9 Norte 15 Norte 0 -- -- 98
2019-08-01 07:00:00 11.8 10 Norte 15 Norte 0 -- -- 97
2019-08-01 06:00:00 11.5 6 Nordeste 14 Norte 0 -- -- 96
2019-08-01 05:00:00 12.1 9 Norte 15 Norte 0 -- -- 95
2019-08-01 04:00:00 12.4 6 Norte 13 Norte 0 -- -- 94
2019-08-01 03:00:00 12.5 8 Norte 16 Norte 0 -- -- 94
2019-08-01 02:00:00 12.7 8 Norte 15 Norte 0 -- -- 93
2019-08-01 01:00:00 13 5 Nordeste 9 Nordeste 0 -- -- 92
2019-08-01 00:00:00 13.7 4 Nordeste 14 Nordeste 0 -- -- 89
2019-07-31 23:00:00 14.6 9 Nordeste 17 Norte 0 -- -- 86
2019-07-31 22:00:00 16 10 Norte 19 Nordeste 0 -- -- 80
2019-07-31 21:00:00 18.4 9 Nordeste 21 Nordeste 0 -- -- 71
2019-07-31 20:00:00 19.1 5 Nordeste 16 Este 0 -- -- 69
2019-07-31 19:00:00 20.5 5 Norte 15 Norte 0 -- -- 64
2019-07-31 18:00:00 20.9 5 Norte 16 Noroeste 0 -- -- 62
2019-07-31 17:00:00 20.5 4 Nordeste 16 Norte 0 -- -- 62
2019-07-31 16:00:00 20.8 5 Norte 18 Nordeste 0 -- -- 57
2019-07-31 15:00:00 21 6 Norte 17 Nordeste 0 -- -- 55
2019-07-31 14:00:00 19.7 5 Este 16 Este 0 -- -- 60
2019-07-31 13:00:00 18.2 10 Este 22 Este 0 -- -- 67
2019-07-31 12:00:00 15.5 5 Nordeste 13 Noroeste 0 -- -- 76
2019-07-31 11:00:00 13.6 5 Nordeste 12 Nordeste 0 -- -- 78
2019-07-31 10:00:00 11.6 0 Calma 8 Nordeste 0 -- -- 95
2019-07-31 09:00:00 9.3 0 Calma 4 Este 0 -- -- 98
2019-07-31 08:00:00 8.2 0 Calma 7 Norte 0 -- -- 98
2019-07-31 07:00:00 8.4 2 Este 7 Norte 0 -- -- 97
2019-07-31 06:00:00 8.8 3 Noroeste 7 Nordeste 0 -- -- 96
2019-07-31 05:00:00 9.1 5 Norte 8 Norte 0 -- -- 96
2019-07-31 04:00:00 9.1 4 Este 6 Nordeste 0 -- -- 94
2019-07-31 03:00:00 9.7 7 Norte 9 Norte 0 -- -- 92
2019-07-31 02:00:00 10.1 6 Este 8 Este 0 -- -- 90
2019-07-31 01:00:00 10.7 0 Calma 9 Este 0 -- -- 87
2019-07-31 00:00:00 11.2 8 Nordeste 13 Norte 0 -- -- 84
2019-07-30 23:00:00 12.3 6 Nordeste 19 Norte 0 -- -- 81
2019-07-30 22:00:00 13.2 11 Norte 25 Norte 0 -- -- 77
2019-07-30 21:00:00 15.5 8 Norte 25 Norte 0 -- -- 67
2019-07-30 20:00:00 17.7 9 Norte 22 Norte 0 -- -- 62
2019-07-30 19:00:00 19.6 6 Nordeste 13 Nordeste 0 -- -- 49
2019-07-30 18:00:00 19.9 6 Nordeste 21 Este 0 -- -- 47
2019-07-30 17:00:00 19.8 7 Este 19 Nordeste 0 -- -- 46
2019-07-30 16:00:00 19.5 9 Este 20 Norte 0 -- -- 48
2019-07-30 15:00:00 17.5 7 Nordeste 21 Nordeste 0 -- -- 54
2019-07-30 14:00:00 16.9 8 Noroeste 22 Oeste 0 -- -- 54
2019-07-30 13:00:00 14.9 10 Noroeste 22 Noroeste 0 -- -- 66
2019-07-30 12:00:00 14.2 5 Noroeste 20 Oeste 0 -- -- 72
2019-07-30 11:00:00 12.2 4 Este 13 Oeste 0 -- -- 87
2019-07-30 10:00:00 11.8 0 Calma 8 Sudoeste 0 -- -- 84
2019-07-30 09:00:00 11 3 Noroeste 8 Noroeste 0 -- -- 87
2019-07-30 08:00:00 10.2 4 Sudoeste 13 Sudoeste 0 -- -- 89
2019-07-30 07:00:00 10.3 4 Este 12 Sudoeste 0 -- -- 88
2019-07-30 06:00:00 10.5 8 Sudoeste 19 Sudoeste 0 -- -- 87
2019-07-30 05:00:00 10.4 14 Sudoeste 22 Sudoeste 0 -- -- 88
2019-07-30 04:00:00 9.9 13 Oeste 19 Sudoeste 0 -- -- 89
2019-07-30 03:00:00 10.8 14 Sudoeste 26 Sudoeste 0 -- -- 86
2019-07-30 02:00:00 11.1 20 Sudoeste 31 Sudoeste 0 -- -- 87
2019-07-30 01:00:00 11.3 14 Sudoeste 26 Oeste 0 -- -- 86
2019-07-30 00:00:00 11.4 16 Oeste 26 Oeste 0 -- -- 82
2019-07-29 23:00:00 11.3 15 Oeste 22 Sudoeste 0 -- -- 83
2019-07-29 22:00:00 12.4 16 Sudoeste 37 Oeste 0 -- -- 77
2019-07-29 21:00:00 13.4 25 Oeste 36 Oeste 0 -- -- 76
2019-07-29 20:00:00 15.1 8 Noroeste 26 Oeste 0 -- -- 71
2019-07-29 19:00:00 15.8 18 Oeste 36 Noroeste 0 -- -- 69
2019-07-29 18:00:00 18.1 29 Oeste 49 Oeste 0 -- -- 57
2019-07-29 17:00:00 17.7 24 Oeste 50 Oeste 0 -- -- 62
2019-07-29 16:00:00 17.9 25 Oeste 51 Sudoeste 0 -- -- 57
2019-07-29 15:00:00 17.2 30 Sudoeste 49 Oeste 0 -- -- 61
2019-07-29 14:00:00 18 17 Oeste 59 Sudoeste 0 -- -- 53
2019-07-29 13:00:00 17.2 27 Sudoeste 46 Oeste 0.2 -- -- 57
2019-07-29 12:00:00 14.8 24 Sudoeste 45 Sudoeste 0 -- -- 71
2019-07-29 11:00:00 13.5 28 Sudoeste 43 Oeste 0 -- -- 82
2019-07-29 10:00:00 13.6 22 Sudoeste 55 Sudoeste 0 -- -- 82
2019-07-29 09:00:00 13.1 17 Oeste 43 Sudoeste 0 -- -- 90
2019-07-29 08:00:00 13.4 29 Sudoeste 44 Sudoeste 0.2 -- -- 93
2019-07-29 07:00:00 14 18 Sudoeste 33 Oeste 0 -- -- 88
2019-07-29 06:00:00 15.1 4 Sudoeste 28 Sudoeste 0 -- -- 75
2019-07-29 05:00:00 14.5 6 Sudoeste 43 Oeste 0 -- -- 74
2019-07-29 04:00:00 16.4 23 Oeste 40 Oeste 0 -- -- 61
2019-07-29 03:00:00 16.2 18 Sudoeste 33 Sudoeste 0 -- -- 57
2019-07-29 02:00:00 15.4 13 Sudoeste 39 Oeste 0 -- -- 68
2019-07-29 01:00:00 16.3 24 Sudoeste 36 Sudoeste 0 -- -- 70
2019-07-29 00:00:00 17.1 15 Oeste 31 Oeste 0 -- -- 67
2019-07-28 23:00:00 18.1 20 Oeste 30 Oeste 0 -- -- 60
2019-07-28 22:00:00 20.2 11 Sudoeste 26 Oeste 0 -- -- 44
2019-07-28 21:00:00 22.6 14 Sudoeste 30 Oeste 0 -- -- 40
2019-07-28 20:00:00 23.6 19 Oeste 34 Sudoeste 0 -- -- 35
2019-07-28 19:00:00 23.9 23 Oeste 32 Oeste 0 -- -- 37
2019-07-28 18:00:00 24.3 14 Oeste 42 Oeste 0 -- -- 37
2019-07-28 17:00:00 23.7 22 Oeste 37 Oeste 0 -- -- 37
2019-07-28 16:00:00 23.1 17 Sudoeste 33 Oeste 0 -- -- 48
2019-07-28 15:00:00 22.3 21 Oeste 34 Oeste 0 -- -- 51
2019-07-28 14:00:00 21 15 Oeste 28 Sudoeste 0 -- -- 57
2019-07-28 13:00:00 18.9 5 Este 14 Nordeste 0 -- -- 65
2019-07-28 12:00:00 17 6 Este 10 Oeste 0 -- -- 75
2019-07-28 11:00:00 13.4 4 Sudoeste 11 Oeste 0 -- -- 89
2019-07-28 10:00:00 11.4 3 Oeste 8 Oeste 0 -- -- 98
2019-07-28 09:00:00 9.4 3 Nordeste 11 Nordeste 0 -- -- 98
2019-07-28 08:00:00 8.4 5 Oeste 12 Oeste 0 -- -- 98
2019-07-28 07:00:00 8.8 4 Sudoeste 13 Sudeste 0 -- -- 97
2019-07-28 06:00:00 9.4 3 Nordeste 6 Nordeste 0 -- -- 98
2019-07-28 05:00:00 9.7 3 Este 8 Norte 0 -- -- 96
2019-07-28 04:00:00 10.4 5 Sudeste 12 Este 0 -- -- 95
2019-07-28 03:00:00 10.3 0 Calma 9 Nordeste 0 -- -- 95
2019-07-28 02:00:00 10.5 3 Nordeste 10 Norte 0 -- -- 94
2019-07-28 01:00:00 11.1 2 Nordeste 8 Nordeste 0 -- -- 92
2019-07-28 00:00:00 11.9 5 Norte 13 Norte 0 -- -- 89
2019-07-27 23:00:00 12.2 4 Noroeste 19 Norte 0 -- -- 87
2019-07-26 12:00:00 -- -- -- -- -- -- -- -- --
2019-07-26 11:00:00 14.9 8 Noroeste 13 Oeste 0 -- -- 83
2019-07-26 10:00:00 13.5 4 Este 8 Este 0 -- -- 88
2019-07-26 09:00:00 12.5 5 Oeste 8 Oeste 0 -- -- 95
2019-07-26 08:00:00 12 2 Este 9 Oeste 0 -- -- 92
2019-07-26 07:00:00 11.7 6 Oeste 10 Este 0 -- -- 95
2019-07-26 06:00:00 11.9 8 Sudeste 14 Oeste 0 -- -- 93
2019-07-26 05:00:00 12 4 Sudoeste 15 Sudoeste 0 -- -- 93
2019-07-26 04:00:00 11.9 12 Sudoeste 19 Sudoeste 0 -- -- 94
2019-07-26 03:00:00 12.7 6 Oeste 10 Oeste 0 -- -- 89
2019-07-26 02:00:00 13.6 10 Sudoeste 27 Oeste 0 -- -- 89
2019-07-26 01:00:00 14.3 20 Oeste 32 Oeste 0 -- -- 90
2019-07-26 00:00:00 15.5 12 Oeste 18 Oeste 0 -- -- 90
2019-07-25 23:00:00 15.5 8 Sudoeste 16 Oeste 0.2 -- -- 92
2019-07-25 22:00:00 15.8 10 Oeste 18 Oeste 0.6 -- -- 91
2019-07-25 21:00:00 16.4 11 Oeste 22 Oeste 0 -- -- 85
2019-07-25 20:00:00 16.6 8 Oeste 31 Oeste 0 -- -- 86
2019-07-25 19:00:00 17.5 17 Sudoeste 33 Oeste 0 -- -- 83
2019-07-25 18:00:00 19 6 Oeste 47 Sudoeste 0 -- -- 76
2019-07-25 17:00:00 20.9 37 Sudoeste 50 Sudoeste 0 -- -- 70
2019-07-25 16:00:00 23.5 32 Oeste 43 Oeste 0 -- -- 54
2019-07-25 15:00:00 25 30 Sudoeste 44 Oeste 0 -- -- 52
2019-07-25 14:00:00 25.9 17 Oeste 38 Oeste 0 -- -- 51
2019-07-25 13:00:00 25.3 20 Oeste 36 Oeste 0 -- -- 51
2019-07-25 12:00:00 23.9 11 Oeste 26 Sudoeste 0 -- -- 55
2019-07-25 11:00:00 22.6 12 Noroeste 18 Noroeste 0 -- -- 58
2019-07-25 10:00:00 20.1 5 Este 30 Oeste 0 -- -- 63
2019-07-25 09:00:00 18.9 5 Oeste 14 Oeste 0 -- -- 62
2019-07-25 08:00:00 18.9 6 Nordeste 12 Sur 0 -- -- 57
2019-07-25 07:00:00 18.2 5 Este 16 Sudoeste 0 -- -- 60
2019-07-25 06:00:00 18.3 6 Oeste 13 Oeste 0 -- -- 59
2019-07-25 05:00:00 19.1 2 Sudoeste 11 Este 0 -- -- 56
2019-07-25 04:00:00 19.3 9 Sudoeste 17 Sudoeste 0 -- -- 53
2019-07-25 03:00:00 19.9 4 Noroeste 5 Norte 0 -- -- 53
2019-07-25 02:00:00 20.3 0 Calma 15 Sur 0 -- -- 51
2019-07-25 01:00:00 19.6 2 Sudeste 24 Sudoeste 0 -- -- 54
2019-07-25 00:00:00 20.5 20 Sudoeste 31 Sudoeste 0 -- -- 52
2019-07-24 23:00:00 21.5 26 Sudoeste 32 Oeste 0 -- -- 48
2019-07-24 22:00:00 25.1 21 Oeste 48 Oeste 0 -- -- 40
2019-07-24 21:00:00 26.9 30 Sudoeste 46 Oeste 0 -- -- 36
2019-07-24 20:00:00 28.8 24 Oeste 46 Oeste 0 -- -- 37
2019-07-24 19:00:00 30.2 27 Oeste 46 Oeste 0 -- -- 39
2019-07-24 18:00:00 31 21 Oeste 45 Sudoeste 0 -- -- 41
2019-07-24 17:00:00 30.4 20 Sudoeste 41 Oeste 0 -- -- 42
2019-07-24 16:00:00 30.2 6 Sudoeste 48 Sudoeste 0 -- -- 47
2019-07-24 15:00:00 31.3 28 Sudoeste 44 Oeste 0 -- -- 41
2019-07-24 14:00:00 30.5 26 Sudoeste 43 Oeste 0 -- -- 38
2019-07-24 13:00:00 27.5 4 Este 12 Este 0 -- -- 60
2019-07-24 12:00:00 24.3 5 Este 11 Este 0 -- -- 70
2019-07-24 11:00:00 21.2 4 Este 10 Este 0 -- -- 81
2019-07-24 10:00:00 18.2 0 Calma 7 Este 0 -- -- 98
2019-07-24 09:00:00 17 0 Calma 6 Oeste 0 -- -- 98
2019-07-24 08:00:00 16.7 0 Calma 5 Oeste 0 -- -- 98
2019-07-24 07:00:00 15.6 0 Calma 8 Oeste 0 -- -- 98
2019-07-24 06:00:00 15.9 6 Noroeste 9 Noroeste 0 -- -- 96
2019-07-24 05:00:00 16.9 0 Calma 7 Este 0 -- -- 95
2019-07-24 04:00:00 17.7 0 Calma 5 Nordeste 0 -- -- 94
2019-07-24 03:00:00 17.8 0 Calma 8 Noroeste 0 -- -- 94
2019-07-24 02:00:00 18.3 3 Norte 8 Norte 0 -- -- 91
2019-07-24 01:00:00 19.1 0 Calma 7 Nordeste 0 -- -- 89
2019-07-24 00:00:00 19.7 0 Calma 8 Oeste 0 -- -- 86